Tiempo atmosférico en la estación meteorológica de Barcelona, Museo Marítimo, Barcelona (37 m.)



Fecha
DESCASC
Temp. máxima en grados centígrados (hora)
DESCASC
Temp. mínima en grados centígrados (hora)
DESCASC
Temp. media en grados centígrados
DESCASC
Racha de viento máxima en m/sg (hora)
DESCASC
Velocidad máxima media en intervalos de 10 minutos(hora)
DESCASC
Precipitaciones diarias en mm
DESCASC
Precipitaciones de 00:00 a 06:00 en mm
DESCASC
Precipitaciones de 06:00 a 12:00 en mm
DESCASC
Precipitaciones de 12:00 a 18:00 en mm
DESCASC
Precipitaciones de 18:00 a 24:00 en mm
DESCASC
25-02-2021 16.5 (15:00) 12 (22:50) 14.3 -- (--) -- (--) 0 0 0 0 0
24-02-2021 16.5 (15:40) 12.5 (23:50) 14.5 -- (--) -- (--) 0 0 0 0 0
23-02-2021 18 (13:50) 13.1 (00:00) 15.6 -- (--) -- (--) 0 0 0 0 0
22-02-2021 14.7 (00:00) 12.3 (19:50) 13.5 -- (--) -- (--) 7.4 0 4.6 1 1.8
21-02-2021 14.7 (23:59) 11.5 (00:00) 13.1 -- (--) -- (--) 0 0 0 0 0
20-02-2021 15 (15:20) 8.6 (00:00) 11.8 -- (--) -- (--) 0 0 0 0 0
19-02-2021 -- (--) -- (--) -- -- (--) -- (--) -- -- -- -- 0
18-02-2021 -- (--) -- (--) -- -- (--) -- (--) -- -- -- -- --
17-02-2021 -- (--) -- (--) -- -- (--) -- (--) -- -- -- -- --
16-02-2021 -- (--) -- (--) -- -- (--) -- (--) -- -- -- -- --
15-02-2021 -- (--) -- (--) -- -- (--) -- (--) -- -- -- -- --
14-02-2021 -- (--) -- (--) -- -- (--) -- (--) -- -- -- -- --
13-02-2021 -- (--) -- (--) -- -- (--) -- (--) -- -- -- -- --
12-02-2021 -- (--) -- (--) -- -- (--) -- (--) -- -- -- -- --
11-02-2021 -- (--) -- (--) -- -- (--) -- (--) -- -- -- -- --
10-02-2021 -- (--) -- (--) -- -- (--) -- (--) -- -- -- -- --
09-02-2021 -- (--) -- (--) -- -- (--) -- (--) -- -- -- -- --
08-02-2021 -- (--) -- (--) -- -- (--) -- (--) -- -- -- -- --
07-02-2021 -- (--) -- (--) -- -- (--) -- (--) -- -- -- -- --
06-02-2021 -- (--) -- (--) -- -- (--) -- (--) -- -- -- -- --
05-02-2021 -- (--) -- (--) -- -- (--) -- (--) -- -- -- -- --
04-02-2021 -- (--) -- (--) -- -- (--) -- (--) -- -- -- -- --
03-02-2021 -- (--) -- (--) -- -- (--) -- (--) -- 0 -- -- --
02-02-2021 20.4 (13:20) 13.4 (00:00) 16.9 -- (--) -- (--) 0 0 0 0 0
01-02-2021 21.1 (16:00) 13.3 (00:00) 17.2 -- (--) -- (--) 0.2 0.2 0 0 0
31-01-2021 18.1 (15:30) 11.6 (00:00) 14.9 -- (--) -- (--) 0 0 0 0 0
30-01-2021 19.9 (15:30) 11.9 (00:00) 15.9 -- (--) -- (--) 0 0 0 0 0
29-01-2021 23.1 (15:50) 12.2 (00:00) 17.7 -- (--) -- (--) 0 0 0 0 0
28-01-2021 17.4 (11:30) 10.3 (00:00) 13.8 4.17 (07:50) 2.5 (13:30) 0 0 0 0 0

Gráficas

Temp. máximas Temp. mínimas Temp. medias Precipitaciones Rachas de viento máximas Velocidades máximas media en intervalos de 10 minutos

Datos horarios

Fecha y hora oficial Temperatura (ºC) Velocidad del viento (km/h) Dirección del viento Racha (km/h) Dirección de racha Precipitación (mm) Presión (hPa) Tendencia (hPa) Humedad (%)
2021-02-26 23:00:00 11.8 3 Noroeste 9 Noroeste 0 -- -- 82
2021-02-26 22:00:00 12.2 3 Oeste 10 Noroeste 0 -- -- 80
2021-02-26 21:00:00 12.5 6 Noroeste 11 Noroeste 0 -- -- 79
2021-02-26 20:00:00 12.8 5 Oeste 11 Oeste 0 -- -- 78
2021-02-26 19:00:00 13.2 5 Oeste 14 Sudoeste 0 -- -- 77
2021-02-26 18:00:00 14.3 6 Oeste 16 Oeste 0 -- -- 72
2021-02-26 17:00:00 15 9 Oeste 20 Sudoeste 0 -- -- 68
2021-02-26 16:00:00 15.7 4 Nordeste 12 Norte 0 -- -- 68
2021-02-26 15:00:00 16.2 4 Norte 14 Oeste 0 -- -- 64
2021-02-26 14:00:00 15.7 5 Sur 12 Sudeste 0 -- -- 65
2021-02-26 13:00:00 14.8 4 Sudeste 10 Sudeste 0 -- -- 68
2021-02-26 12:00:00 14.2 5 Sudeste 10 Sudeste 0 -- -- 70
2021-02-26 11:00:00 13.9 5 Sudeste 11 Nordeste 0 -- -- 72
2021-02-26 10:00:00 13.9 4 Sudeste 10 Este 0 -- -- 74
2021-02-26 09:00:00 13.4 5 Este 9 Este 0 -- -- 75
2021-02-26 08:00:00 13.1 4 Este 8 Este 0 -- -- 81
2021-02-26 07:00:00 13.1 3 Este 9 Nordeste 0 -- -- 82
2021-02-26 06:00:00 13.1 2 Este 5 Nordeste 0 -- -- 80
2021-02-26 05:00:00 13.1 2 Este 6 Este 0 -- -- 82
2021-02-26 04:00:00 13 2 Sudeste 6 Nordeste 0 -- -- 83
2021-02-26 03:00:00 12.9 2 Este 5 Este 0 -- -- 83
2021-02-26 02:00:00 12.9 0 Calma 5 Sudeste 0 -- -- 87
2021-02-26 01:00:00 12.9 0 Calma 6 Sudoeste 0 -- -- 87
2021-02-26 00:00:00 12.5 0 Calma 5 Sudeste 0 -- -- 90
2021-02-25 23:00:00 12.1 0 Calma 4 Sudoeste 0 -- -- 89
2021-02-25 22:00:00 12.5 0 Calma 6 Oeste 0 -- -- 88
2021-02-25 21:00:00 13 4 Oeste 13 Oeste 0 -- -- 87
2021-02-25 20:00:00 13.2 4 Oeste 14 Oeste 0 -- -- 85
2021-02-25 19:00:00 13.7 7 Oeste 21 Oeste 0 -- -- 82
2021-02-25 18:00:00 14.6 10 Oeste 23 Oeste 0 -- -- 74
2021-02-25 17:00:00 15.8 13 Oeste 24 Sudoeste 0 -- -- 69
2021-02-25 16:00:00 16.1 13 Oeste 27 Oeste 0 -- -- 69
2021-02-25 15:00:00 16.5 13 Oeste 23 Oeste 0 -- -- 64
2021-02-25 14:00:00 15.4 10 Oeste 20 Sudoeste 0 -- -- 71
2021-02-25 13:00:00 14.7 5 Este 17 Sudoeste 0 -- -- 78
2021-02-25 12:00:00 15.7 5 Sudoeste 15 Oeste 0 -- -- 70
2021-02-25 11:00:00 15.5 3 Sudeste 9 Sudeste 0 -- -- 75
2021-02-25 10:00:00 14.9 4 Sudeste 8 Sudeste 0 -- -- 77
2021-02-25 09:00:00 12.9 3 Sudeste 6 Sudoeste 0 -- -- 84
2021-02-25 08:00:00 12.3 2 Sudeste 5 Sur 0 -- -- 82
2021-02-25 07:00:00 12.3 0 Calma 4 Sudeste 0 -- -- 83
2021-02-25 06:00:00 12.5 0 Calma 4 Sudoeste 0 -- -- 83
2021-02-25 05:00:00 12.5 2 Sudeste 3 Sudeste 0 -- -- 84
2021-02-25 04:00:00 12.6 0 Calma 8 Nordeste 0 -- -- 83
2021-02-25 03:00:00 12.6 2 Sudeste 6 Nordeste 0 -- -- 85
2021-02-25 02:00:00 12.5 4 Este 6 Nordeste 0 -- -- 86
2021-02-25 01:00:00 12.6 0 Calma 5 Noroeste 0 -- -- 89
2021-02-25 00:00:00 12.5 0 Calma 6 Oeste 0 -- -- 88
2021-02-24 23:00:00 12.9 2 Oeste 5 Oeste 0 -- -- 88
2021-02-24 22:00:00 13.1 3 Oeste 6 Oeste 0 -- -- 87
2021-02-24 21:00:00 13.2 3 Oeste 6 Sudoeste 0 -- -- 87
2021-02-24 20:00:00 13.5 4 Oeste 11 Oeste 0 -- -- 86
2021-02-24 19:00:00 13.6 3 Sudoeste 10 Sudeste 0 -- -- 86
2021-02-24 18:00:00 14.3 4 Sudeste 13 Sudeste 0 -- -- 82
2021-02-24 17:00:00 15.5 5 Este 14 Sudoeste 0 -- -- 75
2021-02-24 16:00:00 16.2 5 Este 15 Este 0 -- -- 73
2021-02-24 15:00:00 15.9 6 Sudeste 14 Sudeste 0 -- -- 72
2021-02-24 14:00:00 16.3 5 Sudeste 12 Sudeste 0 -- -- 75
2021-02-24 13:00:00 15.9 4 Sudeste 14 Sudeste 0 -- -- 78
2021-02-24 12:00:00 15.6 6 Sudeste 14 Este 0 -- -- 81
2021-02-24 11:00:00 15.4 5 Sudeste 13 Sudeste 0 -- -- 82
2021-02-24 10:00:00 14.9 6 Sudeste 10 Sudeste 0 -- -- 84
2021-02-24 09:00:00 13.7 3 Este 9 Sudeste 0 -- -- 86
2021-02-24 08:00:00 13.5 4 Sudeste 9 Este 0 -- -- 86
2021-02-24 07:00:00 13.4 3 Este 7 Este 0 -- -- 88
2021-02-24 06:00:00 13.3 2 Sudeste 4 Sudeste 0 -- -- 90
2021-02-24 05:00:00 13.2 3 Este 5 Este 0 -- -- 90
2021-02-24 04:00:00 13.3 0 Calma 7 Sudeste 0 -- -- 90
2021-02-24 03:00:00 13.6 3 Este 7 Sudeste 0 -- -- 90
2021-02-24 02:00:00 13.6 2 Sudeste 5 Nordeste 0 -- -- 89
2021-02-24 01:00:00 13.7 3 Este 8 Sudeste 0 -- -- 89
2021-02-24 00:00:00 13.8 3 Sudeste 8 Sudeste 0 -- -- 90
2021-02-23 23:00:00 14 3 Sudeste 8 Sudeste 0 -- -- 90
2021-02-23 22:00:00 14.4 3 Este 13 Este 0 -- -- 89
2021-02-23 21:00:00 14.4 5 Este 12 Sudeste 0 -- -- 90
2021-02-23 20:00:00 14.2 4 Este 13 Sudeste 0 -- -- 91
2021-02-23 19:00:00 14.4 5 Este 15 Este 0 -- -- 90
2021-02-23 18:00:00 14.8 5 Este 16 Sudeste 0 -- -- 89
2021-02-23 17:00:00 15.5 5 Sudeste 15 Sudeste 0 -- -- 86
2021-02-23 16:00:00 16.3 8 Sudeste 11 Sudeste 0 -- -- 80
2021-02-23 15:00:00 16.4 6 Sudeste 17 Sudeste 0 -- -- 81
2021-02-23 14:00:00 17.3 10 Sudeste 17 Sudeste 0 -- -- 74
2021-02-23 13:00:00 16.7 4 Sudeste 13 Sudeste 0 -- -- 79
2021-02-23 12:00:00 16.3 5 Este 13 Este 0 -- -- 79
2021-02-23 11:00:00 15.7 4 Sudeste 9 Sudeste 0 -- -- 79
2021-02-23 10:00:00 14.6 2 Sudeste 7 Sudeste 0 -- -- 85
2021-02-23 09:00:00 13.5 3 Este 7 Sudeste 0 -- -- 89
2021-02-23 08:00:00 13.1 3 Este 10 Nordeste 0 -- -- 89
2021-02-23 07:00:00 13.3 3 Este 17 Este 0 -- -- 89
2021-02-23 06:00:00 13.4 4 Este 16 Nordeste 0 -- -- 88
2021-02-23 05:00:00 13.4 6 Este 15 Nordeste 0 -- -- 90
2021-02-23 04:00:00 13.5 7 Este 22 Este 0 -- -- 89
2021-02-23 03:00:00 13.4 6 Este 17 Nordeste 0 -- -- 91
2021-02-23 02:00:00 13.3 5 Este 17 Sudeste 0 -- -- 92
2021-02-23 01:00:00 13.2 7 Este 17 Este 0 -- -- 92
2021-02-23 00:00:00 13.1 4 Este 12 Este 0 -- -- 93
2021-02-22 23:00:00 12.8 3 Este 10 Sudeste 0.6 -- -- 92
2021-02-22 22:00:00 12.8 3 Este 7 Este 0.4 -- -- 91
2021-02-22 21:00:00 12.8 4 Nordeste 7 Nordeste 0 -- -- 89
2021-02-22 20:00:00 12.4 2 Este 9 Sudoeste 0.6 -- -- 92
2021-02-22 19:00:00 12.6 3 Sudoeste 9 Oeste 0.2 -- -- 91
2021-02-22 18:00:00 12.6 3 Oeste 10 Oeste 0.2 -- -- 89
2021-02-22 17:00:00 13.1 5 Oeste 12 Sudoeste 0.6 -- -- 87
2021-02-22 16:00:00 13.7 5 Oeste 10 Sudeste 0 -- -- 84
2021-02-22 15:00:00 13.8 3 Sudeste 13 Nordeste 0 -- -- 87
2021-02-22 14:00:00 14.2 5 Sudeste 13 Este 0 -- -- 90
2021-02-22 13:00:00 14.3 4 Este 12 Este 0.2 -- -- 92
2021-02-22 12:00:00 13.5 3 Este 12 Este 0.6 -- -- 91
2021-02-22 11:00:00 13.8 3 Este 9 Nordeste 1.2 -- -- 94
2021-02-22 10:00:00 13.9 2 Este 8 Sudeste 1.2 -- -- 94
2021-02-22 09:00:00 13.8 0 Calma 10 Sudeste 1.4 -- -- 93
2021-02-22 08:00:00 14 3 Este 9 Sudeste 0.2 -- -- 90
2021-02-22 07:00:00 14.1 7 Sudeste 24 Sudeste 0 -- -- 89
2021-02-22 06:00:00 14.2 6 Este 22 Este 0 -- -- 89
2021-02-22 05:00:00 14.3 12 Este 27 Este 0 -- -- 88
2021-02-22 04:00:00 14.5 11 Este 32 Este 0 -- -- 86
2021-02-22 03:00:00 14.6 13 Este 44 Este 0 -- -- 84
2021-02-22 02:00:00 14.7 12 Sudeste 35 Este 0 -- -- 83
2021-02-22 01:00:00 14.6 14 Este 35 Este 0 -- -- 82
2021-02-22 00:00:00 14.7 14 Este 39 Este 0 -- -- 80
2021-02-21 23:00:00 14.5 14 Este 38 Nordeste 0 -- -- 80
2021-02-21 22:00:00 14.5 15 Este 43 Nordeste 0 -- -- 80
2021-02-21 21:00:00 14.4 13 Este 40 Este 0 -- -- 80
2021-02-21 20:00:00 14.3 17 Este 39 Sudeste 0 -- -- 80
2021-02-21 19:00:00 14.2 15 Este 37 Nordeste 0 -- -- 80
2021-02-21 18:00:00 14.2 14 Este 45 Este 0 -- -- 80
2021-02-21 17:00:00 14.1 12 Este 48 Este 0 -- -- 79
2021-02-21 16:00:00 14 16 Este 42 Este 0 -- -- 82
2021-02-21 15:00:00 14.2 17 Este 43 Sudeste 0 -- -- 81
2021-02-21 14:00:00 14.3 16 Este 37 Sudeste 0 -- -- 80
2021-02-21 13:00:00 14.5 12 Este 36 Este 0 -- -- 79
2021-02-21 12:00:00 14.5 14 Este 36 Este 0 -- -- 76
2021-02-21 11:00:00 14 14 Este 36 Este 0 -- -- 78
2021-02-21 10:00:00 13.6 11 Este 34 Sudeste 0 -- -- 79
2021-02-21 09:00:00 13.2 12 Este 29 Este 0 -- -- 83
2021-02-21 08:00:00 13.1 10 Este 24 Nordeste 0 -- -- 82
2021-02-21 07:00:00 12.8 11 Este 27 Este 0 -- -- 81
2021-02-21 06:00:00 12.4 11 Este 25 Este 0 -- -- 80
2021-02-21 05:00:00 12.3 8 Este 18 Este 0 -- -- 81
2021-02-21 04:00:00 11.8 7 Este 17 Este 0 -- -- 80
2021-02-21 03:00:00 12.2 8 Este 22 Este 0 -- -- 83
2021-02-21 02:00:00 11.7 7 Este 14 Este 0 -- -- 82
2021-02-21 01:00:00 11.7 4 Este 10 Este 0 -- -- 80
2021-02-21 00:00:00 11.6 5 Este 14 Este 0 -- -- 81
2021-02-20 23:00:00 11.6 4 Este 11 Nordeste 0 -- -- 80
2021-02-20 22:00:00 11.7 4 Este 11 Este 0 -- -- 81
2021-02-20 21:00:00 11.7 4 Este 10 Sudeste 0 -- -- 82
2021-02-20 20:00:00 12.1 4 Sudeste 13 Sur 0 -- -- 79
2021-02-20 19:00:00 12.7 6 Sudeste 15 Sudeste 0 -- -- 78
2021-02-20 18:00:00 13.3 6 Sudeste 13 Sur 0 -- -- 77
2021-02-20 17:00:00 14.5 6 Sudeste 13 Sudeste 0 -- -- 71
2021-02-20 16:00:00 14.7 4 Este 14 Sudeste 0 -- -- 72
2021-02-20 15:00:00 14.6 5 Sudeste 14 Sur 0 -- -- 71
2021-02-20 14:00:00 14 6 Sudeste 11 Sudeste 0 -- -- 73
2021-02-20 13:00:00 13.5 4 Sudeste 10 Sudeste 0 -- -- 77
2021-02-20 12:00:00 13.1 4 Sudeste 9 Sudeste 0 -- -- 77
2021-02-20 11:00:00 12.1 5 Sudeste 10 Sudeste 0 -- -- 80
2021-02-20 10:00:00 11.7 2 Sudeste 6 Sudeste 0 -- -- 81
2021-02-20 09:00:00 11.2 3 Oeste 6 Oeste 0 -- -- 81
2021-02-20 08:00:00 10.4 2 Oeste 4 Oeste 0 -- -- 83
2021-02-20 07:00:00 9.7 2 Noroeste 5 Nordeste 0 -- -- 85
2021-02-20 06:00:00 8.9 0 Calma 8 Oeste 0 -- -- 88
2021-02-20 05:00:00 8.8 3 Oeste 5 Oeste 0 -- -- 90
2021-02-20 04:00:00 8.9 3 Sudoeste 6 Oeste 0 -- -- 90
2021-02-20 03:00:00 9.3 0 Calma 13 Noroeste 0 -- -- 89
2021-02-20 02:00:00 9.6 5 Oeste 10 Noroeste 0 -- -- 89
2021-02-20 01:00:00 10.1 5 Noroeste 9 Oeste 0 -- -- 88
2021-02-20 00:00:00 10.3 3 Oeste 10 Noroeste 0 -- -- 88
2021-02-19 23:00:00 10.9 4 Oeste 14 Noroeste 0 -- -- 88
2021-02-19 22:00:00 10.9 4 Oeste 11 Noroeste 0 -- -- 87
2021-02-19 21:00:00 11.1 2 Noroeste 9 Oeste 0 -- -- 86
2021-02-19 20:00:00 11.3 4 Oeste 10 Oeste 0 -- -- 85
2021-02-19 19:00:00 11.8 6 Oeste 19 Oeste 0 -- -- 83
2021-02-19 18:00:00 12.7 9 Oeste 20 Oeste 0 -- -- 79
2021-02-19 17:00:00 13.5 10 Oeste 20 Oeste 0 -- -- 75
2021-02-19 16:00:00 14.2 10 Oeste 23 Sudoeste 0 -- -- 73
2021-02-19 15:00:00 14.4 12 Oeste 23 Oeste 0 -- -- 71
2021-02-19 14:00:00 14.2 12 Oeste 20 Oeste 0 -- -- 70
2021-02-19 13:00:00 -- -- -- -- -- -- -- -- --
2021-02-19 12:00:00 -- -- -- -- -- -- -- -- --
2021-02-19 11:00:00 -- -- -- -- -- -- -- -- --
2021-02-19 10:00:00 -- -- -- -- -- -- -- -- --
2021-02-19 09:00:00 -- -- -- -- -- -- -- -- --
2021-02-19 08:00:00 -- -- -- -- -- -- -- -- --
2021-02-19 07:00:00 -- -- -- -- -- -- -- -- --
2021-02-19 06:00:00 -- -- -- -- -- -- -- -- --
2021-02-19 05:00:00 -- -- -- -- -- -- -- -- --
2021-02-19 04:00:00 -- -- -- -- -- -- -- -- --
2021-02-19 03:00:00 -- -- -- -- -- -- -- -- --
2021-02-19 02:00:00 -- -- -- -- -- -- -- -- --
2021-02-19 01:00:00 -- -- -- -- -- -- -- -- --
2021-02-19 00:00:00 -- -- -- -- -- -- -- -- --
2021-02-18 23:00:00 -- -- -- -- -- -- -- -- --
2021-02-18 22:00:00 -- -- -- -- -- -- -- -- --
2021-02-18 21:00:00 -- -- -- -- -- -- -- -- --
2021-02-18 20:00:00 -- -- -- -- -- -- -- -- --
2021-02-18 19:00:00 -- -- -- -- -- -- -- -- --
2021-02-18 18:00:00 -- -- -- -- -- -- -- -- --
2021-02-18 17:00:00 -- -- -- -- -- -- -- -- --
2021-02-18 16:00:00 -- -- -- -- -- -- -- -- --
2021-02-18 15:00:00 -- -- -- -- -- -- -- -- --
2021-02-18 14:00:00 -- -- -- -- -- -- -- -- --
2021-02-18 13:00:00 -- -- -- -- -- -- -- -- --
2021-02-18 12:00:00 -- -- -- -- -- -- -- -- --
2021-02-18 11:00:00 -- -- -- -- -- -- -- -- --
2021-02-18 10:00:00 -- -- -- -- -- -- -- -- --
2021-02-18 09:00:00 -- -- -- -- -- -- -- -- --
2021-02-18 08:00:00 -- -- -- -- -- -- -- -- --
2021-02-18 07:00:00 -- -- -- -- -- -- -- -- --
2021-02-18 06:00:00 -- -- -- -- -- -- -- -- --
2021-02-18 05:00:00 -- -- -- -- -- -- -- -- --
2021-02-18 04:00:00 -- -- -- -- -- -- -- -- --
2021-02-18 03:00:00 -- -- -- -- -- -- -- -- --
2021-02-18 02:00:00 -- -- -- -- -- -- -- -- --
2021-02-18 01:00:00 -- -- -- -- -- -- -- -- --
2021-02-18 00:00:00 -- -- -- -- -- -- -- -- --
2021-02-17 23:00:00 -- -- -- -- -- -- -- -- --
2021-02-17 22:00:00 -- -- -- -- -- -- -- -- --
2021-02-17 21:00:00 -- -- -- -- -- -- -- -- --
2021-02-17 20:00:00 -- -- -- -- -- -- -- -- --
2021-02-17 19:00:00 -- -- -- -- -- -- -- -- --
2021-02-17 18:00:00 -- -- -- -- -- -- -- -- --
2021-02-17 17:00:00 -- -- -- -- -- -- -- -- --
2021-02-17 16:00:00 -- -- -- -- -- -- -- -- --
2021-02-17 15:00:00 -- -- -- -- -- -- -- -- --
2021-02-17 14:00:00 -- -- -- -- -- -- -- -- --
2021-02-17 13:00:00 -- -- -- -- -- -- -- -- --
2021-02-17 12:00:00 -- -- -- -- -- -- -- -- --
2021-02-17 11:00:00 -- -- -- -- -- -- -- -- --
2021-02-17 10:00:00 -- -- -- -- -- -- -- -- --
2021-02-17 09:00:00 -- -- -- -- -- -- -- -- --
2021-02-17 08:00:00 -- -- -- -- -- -- -- -- --
2021-02-17 07:00:00 -- -- -- -- -- -- -- -- --
2021-02-17 06:00:00 -- -- -- -- -- -- -- -- --
2021-02-17 05:00:00 -- -- -- -- -- -- -- -- --
2021-02-17 04:00:00 -- -- -- -- -- -- -- -- --
2021-02-17 03:00:00 -- -- -- -- -- -- -- -- --
2021-02-17 02:00:00 -- -- -- -- -- -- -- -- --
2021-02-17 01:00:00 -- -- -- -- -- -- -- -- --
2021-02-17 00:00:00 -- -- -- -- -- -- -- -- --
2021-02-16 23:00:00 -- -- -- -- -- -- -- -- --
2021-02-16 22:00:00 -- -- -- -- -- -- -- -- --
2021-02-16 21:00:00 -- -- -- -- -- -- -- -- --
2021-02-16 20:00:00 -- -- -- -- -- -- -- -- --
2021-02-16 19:00:00 -- -- -- -- -- -- -- -- --
2021-02-16 18:00:00 -- -- -- -- -- -- -- -- --
2021-02-16 17:00:00 -- -- -- -- -- -- -- -- --
2021-02-16 16:00:00 -- -- -- -- -- -- -- -- --
2021-02-16 15:00:00 -- -- -- -- -- -- -- -- --
2021-02-16 14:00:00 -- -- -- -- -- -- -- -- --
2021-02-16 13:00:00 -- -- -- -- -- -- -- -- --
2021-02-16 12:00:00 -- -- -- -- -- -- -- -- --
2021-02-16 11:00:00 -- -- -- -- -- -- -- -- --
2021-02-16 10:00:00 -- -- -- -- -- -- -- -- --
2021-02-16 09:00:00 -- -- -- -- -- -- -- -- --
2021-02-16 08:00:00 -- -- -- -- -- -- -- -- --
2021-02-16 07:00:00 -- -- -- -- -- -- -- -- --
2021-02-16 06:00:00 -- -- -- -- -- -- -- -- --
2021-02-16 05:00:00 -- -- -- -- -- -- -- -- --
2021-02-16 04:00:00 -- -- -- -- -- -- -- -- --
2021-02-16 03:00:00 -- -- -- -- -- -- -- -- --
2021-02-16 02:00:00 -- -- -- -- -- -- -- -- --
2021-02-16 01:00:00 -- -- -- -- -- -- -- -- --
2021-02-16 00:00:00 -- -- -- -- -- -- -- -- --
2021-02-15 23:00:00 -- -- -- -- -- -- -- -- --
2021-02-15 22:00:00 -- -- -- -- -- -- -- -- --
2021-02-15 21:00:00 -- -- -- -- -- -- -- -- --
2021-02-15 20:00:00 -- -- -- -- -- -- -- -- --
2021-02-15 19:00:00 -- -- -- -- -- -- -- -- --
2021-02-15 18:00:00 -- -- -- -- -- -- -- -- --
2021-02-15 17:00:00 -- -- -- -- -- -- -- -- --
2021-02-15 16:00:00 -- -- -- -- -- -- -- -- --
2021-02-15 15:00:00 -- -- -- -- -- -- -- -- --
2021-02-15 14:00:00 -- -- -- -- -- -- -- -- --
2021-02-15 13:00:00 -- -- -- -- -- -- -- -- --
2021-02-15 12:00:00 -- -- -- -- -- -- -- -- --
2021-02-15 11:00:00 -- -- -- -- -- -- -- -- --
2021-02-15 10:00:00 -- -- -- -- -- -- -- -- --
2021-02-15 09:00:00 -- -- -- -- -- -- -- -- --
2021-02-15 08:00:00 -- -- -- -- -- -- -- -- --
2021-02-15 07:00:00 -- -- -- -- -- -- -- -- --
2021-02-15 06:00:00 -- -- -- -- -- -- -- -- --
2021-02-15 05:00:00 -- -- -- -- -- -- -- -- --
2021-02-15 04:00:00 -- -- -- -- -- -- -- -- --
2021-02-15 03:00:00 -- -- -- -- -- -- -- -- --
2021-02-15 02:00:00 -- -- -- -- -- -- -- -- --
2021-02-15 01:00:00 -- -- -- -- -- -- -- -- --
2021-02-15 00:00:00 -- -- -- -- -- -- -- -- --
2021-02-14 23:00:00 -- -- -- -- -- -- -- -- --
2021-02-14 22:00:00 -- -- -- -- -- -- -- -- --
2021-02-14 21:00:00 -- -- -- -- -- -- -- -- --
2021-02-14 20:00:00 -- -- -- -- -- -- -- -- --
2021-02-14 19:00:00 -- -- -- -- -- -- -- -- --
2021-02-14 18:00:00 -- -- -- -- -- -- -- -- --
2021-02-14 17:00:00 -- -- -- -- -- -- -- -- --
2021-02-14 16:00:00 -- -- -- -- -- -- -- -- --
2021-02-14 15:00:00 -- -- -- -- -- -- -- -- --
2021-02-14 14:00:00 -- -- -- -- -- -- -- -- --
2021-02-14 13:00:00 -- -- -- -- -- -- -- -- --
2021-02-14 12:00:00 -- -- -- -- -- -- -- -- --
2021-02-14 11:00:00 -- -- -- -- -- -- -- -- --
2021-02-14 10:00:00 -- -- -- -- -- -- -- -- --
2021-02-14 09:00:00 -- -- -- -- -- -- -- -- --
2021-02-14 08:00:00 -- -- -- -- -- -- -- -- --
2021-02-14 07:00:00 -- -- -- -- -- -- -- -- --
2021-02-14 06:00:00 -- -- -- -- -- -- -- -- --
2021-02-14 05:00:00 -- -- -- -- -- -- -- -- --
2021-02-14 04:00:00 -- -- -- -- -- -- -- -- --
2021-02-14 03:00:00 -- -- -- -- -- -- -- -- --
2021-02-14 02:00:00 -- -- -- -- -- -- -- -- --
2021-02-14 01:00:00 -- -- -- -- -- -- -- -- --
2021-02-14 00:00:00 -- -- -- -- -- -- -- -- --
2021-02-13 23:00:00 -- -- -- -- -- -- -- -- --
2021-02-13 22:00:00 -- -- -- -- -- -- -- -- --
2021-02-13 21:00:00 -- -- -- -- -- -- -- -- --
2021-02-13 20:00:00 -- -- -- -- -- -- -- -- --
2021-02-13 19:00:00 -- -- -- -- -- -- -- -- --
2021-02-13 18:00:00 -- -- -- -- -- -- -- -- --
2021-02-13 17:00:00 -- -- -- -- -- -- -- -- --
2021-02-13 16:00:00 -- -- -- -- -- -- -- -- --
2021-02-13 15:00:00 -- -- -- -- -- -- -- -- --
2021-02-13 14:00:00 -- -- -- -- -- -- -- -- --
2021-02-13 13:00:00 -- -- -- -- -- -- -- -- --
2021-02-13 08:00:00 -- -- -- -- -- -- -- -- --
2021-02-13 07:00:00 -- -- -- -- -- -- -- -- --
2021-02-13 06:00:00 -- -- -- -- -- -- -- -- --
2021-02-13 05:00:00 -- -- -- -- -- -- -- -- --
2021-02-13 04:00:00 -- -- -- -- -- -- -- -- --
2021-02-13 03:00:00 -- -- -- -- -- -- -- -- --
2021-02-13 02:00:00 -- -- -- -- -- -- -- -- --
2021-02-13 01:00:00 -- -- -- -- -- -- -- -- --
2021-02-13 00:00:00 -- -- -- -- -- -- -- -- --
2021-02-12 23:00:00 -- -- -- -- -- -- -- -- --
2021-02-12 22:00:00 -- -- -- -- -- -- -- -- --
2021-02-12 21:00:00 -- -- -- -- -- -- -- -- --
2021-02-12 20:00:00 -- -- -- -- -- -- -- -- --
2021-02-12 19:00:00 -- -- -- -- -- -- -- -- --
2021-02-12 18:00:00 -- -- -- -- -- -- -- -- --
2021-02-12 17:00:00 -- -- -- -- -- -- -- -- --
2021-02-12 16:00:00 -- -- -- -- -- -- -- -- --
2021-02-12 15:00:00 -- -- -- -- -- -- -- -- --
2021-02-12 14:00:00 -- -- -- -- -- -- -- -- --
2021-02-12 13:00:00 -- -- -- -- -- -- -- -- --
2021-02-12 12:00:00 -- -- -- -- -- -- -- -- --
2021-02-12 11:00:00 -- -- -- -- -- -- -- -- --
2021-02-12 10:00:00 -- -- -- -- -- -- -- -- --
2021-02-12 09:00:00 -- -- -- -- -- -- -- -- --
2021-02-12 08:00:00 -- -- -- -- -- -- -- -- --
2021-02-12 07:00:00 -- -- -- -- -- -- -- -- --
2021-02-12 06:00:00 -- -- -- -- -- -- -- -- --
2021-02-12 05:00:00 -- -- -- -- -- -- -- -- --
2021-02-12 04:00:00 -- -- -- -- -- -- -- -- --
2021-02-12 03:00:00 -- -- -- -- -- -- -- -- --
2021-02-12 02:00:00 -- -- -- -- -- -- -- -- --
2021-02-12 01:00:00 -- -- -- -- -- -- -- -- --
2021-02-12 00:00:00 -- -- -- -- -- -- -- -- --
2021-02-11 23:00:00 -- -- -- -- -- -- -- -- --
2021-02-11 22:00:00 -- -- -- -- -- -- -- -- --
2021-02-11 21:00:00 -- -- -- -- -- -- -- -- --
2021-02-11 20:00:00 -- -- -- -- -- -- -- -- --
2021-02-11 19:00:00 -- -- -- -- -- -- -- -- --
2021-02-11 18:00:00 -- -- -- -- -- -- -- -- --
2021-02-11 17:00:00 -- -- -- -- -- -- -- -- --
2021-02-11 16:00:00 -- -- -- -- -- -- -- -- --
2021-02-11 15:00:00 -- -- -- -- -- -- -- -- --
2021-02-11 14:00:00 -- -- -- -- -- -- -- -- --
2021-02-11 13:00:00 -- -- -- -- -- -- -- -- --
2021-02-11 12:00:00 -- -- -- -- -- -- -- -- --
2021-02-11 11:00:00 -- -- -- -- -- -- -- -- --
2021-02-11 10:00:00 -- -- -- -- -- -- -- -- --
2021-02-11 09:00:00 -- -- -- -- -- -- -- -- --
2021-02-11 08:00:00 -- -- -- -- -- -- -- -- --
2021-02-11 07:00:00 -- -- -- -- -- -- -- -- --
2021-02-11 06:00:00 -- -- -- -- -- -- -- -- --
2021-02-11 05:00:00 -- -- -- -- -- -- -- -- --
2021-02-11 04:00:00 -- -- -- -- -- -- -- -- --
2021-02-11 03:00:00 -- -- -- -- -- -- -- -- --
2021-02-11 02:00:00 -- -- -- -- -- -- -- -- --
2021-02-11 01:00:00 -- -- -- -- -- -- -- -- --
2021-02-11 00:00:00 -- -- -- -- -- -- -- -- --
2021-02-10 23:00:00 -- -- -- -- -- -- -- -- --
2021-02-10 22:00:00 -- -- -- -- -- -- -- -- --
2021-02-10 21:00:00 -- -- -- -- -- -- -- -- --
2021-02-10 20:00:00 -- -- -- -- -- -- -- -- --
2021-02-10 19:00:00 -- -- -- -- -- -- -- -- --
2021-02-10 18:00:00 -- -- -- -- -- -- -- -- --
2021-02-10 17:00:00 -- -- -- -- -- -- -- -- --
2021-02-10 16:00:00 -- -- -- -- -- -- -- -- --
2021-02-10 15:00:00 -- -- -- -- -- -- -- -- --
2021-02-10 14:00:00 -- -- -- -- -- -- -- -- --
2021-02-10 13:00:00 -- -- -- -- -- -- -- -- --
2021-02-10 12:00:00 -- -- -- -- -- -- -- -- --
2021-02-10 11:00:00 -- -- -- -- -- -- -- -- --
2021-02-10 10:00:00 -- -- -- -- -- -- -- -- --
2021-02-10 09:00:00 -- -- -- -- -- -- -- -- --
2021-02-10 08:00:00 -- -- -- -- -- -- -- -- --
2021-02-10 07:00:00 -- -- -- -- -- -- -- -- --
2021-02-10 06:00:00 -- -- -- -- -- -- -- -- --
2021-02-10 05:00:00 -- -- -- -- -- -- -- -- --
2021-02-10 04:00:00 -- -- -- -- -- -- -- -- --
2021-02-10 03:00:00 -- -- -- -- -- -- -- -- --
2021-02-10 02:00:00 -- -- -- -- -- -- -- -- --
2021-02-10 01:00:00 -- -- -- -- -- -- -- -- --
2021-02-10 00:00:00 -- -- -- -- -- -- -- -- --
2021-02-09 23:00:00 -- -- -- -- -- -- -- -- --
2021-02-09 22:00:00 -- -- -- -- -- -- -- -- --
2021-02-09 21:00:00 -- -- -- -- -- -- -- -- --
2021-02-09 20:00:00 -- -- -- -- -- -- -- -- --
2021-02-09 19:00:00 -- -- -- -- -- -- -- -- --
2021-02-09 18:00:00 -- -- -- -- -- -- -- -- --
2021-02-09 17:00:00 -- -- -- -- -- -- -- -- --
2021-02-09 16:00:00 -- -- -- -- -- -- -- -- --
2021-02-09 15:00:00 -- -- -- -- -- -- -- -- --
2021-02-09 14:00:00 -- -- -- -- -- -- -- -- --
2021-02-09 13:00:00 -- -- -- -- -- -- -- -- --
2021-02-09 12:00:00 -- -- -- -- -- -- -- -- --
2021-02-09 11:00:00 -- -- -- -- -- -- -- -- --
2021-02-09 10:00:00 -- -- -- -- -- -- -- -- --
2021-02-09 09:00:00 -- -- -- -- -- -- -- -- --
2021-02-09 08:00:00 -- -- -- -- -- -- -- -- --
2021-02-09 07:00:00 -- -- -- -- -- -- -- -- --
2021-02-09 06:00:00 -- -- -- -- -- -- -- -- --
2021-02-09 05:00:00 -- -- -- -- -- -- -- -- --
2021-02-09 04:00:00 -- -- -- -- -- -- -- -- --
2021-02-09 03:00:00 -- -- -- -- -- -- -- -- --
2021-02-09 02:00:00 -- -- -- -- -- -- -- -- --
2021-02-09 01:00:00 -- -- -- -- -- -- -- -- --
2021-02-09 00:00:00 -- -- -- -- -- -- -- -- --
2021-02-08 23:00:00 -- -- -- -- -- -- -- -- --
2021-02-08 22:00:00 -- -- -- -- -- -- -- -- --
2021-02-08 21:00:00 -- -- -- -- -- -- -- -- --
2021-02-08 20:00:00 -- -- -- -- -- -- -- -- --
2021-02-08 19:00:00 -- -- -- -- -- -- -- -- --
2021-02-08 18:00:00 -- -- -- -- -- -- -- -- --
2021-02-08 17:00:00 -- -- -- -- -- -- -- -- --
2021-02-08 16:00:00 -- -- -- -- -- -- -- -- --
2021-02-08 15:00:00 -- -- -- -- -- -- -- -- --
2021-02-08 14:00:00 -- -- -- -- -- -- -- -- --
2021-02-08 13:00:00 -- -- -- -- -- -- -- -- --
2021-02-08 12:00:00 -- -- -- -- -- -- -- -- --
2021-02-08 11:00:00 -- -- -- -- -- -- -- -- --
2021-02-08 10:00:00 -- -- -- -- -- -- -- -- --
2021-02-08 09:00:00 -- -- -- -- -- -- -- -- --
2021-02-08 08:00:00 -- -- -- -- -- -- -- -- --
2021-02-08 07:00:00 -- -- -- -- -- -- -- -- --
2021-02-08 06:00:00 -- -- -- -- -- -- -- -- --
2021-02-08 05:00:00 -- -- -- -- -- -- -- -- --
2021-02-08 04:00:00 -- -- -- -- -- -- -- -- --
2021-02-08 03:00:00 -- -- -- -- -- -- -- -- --
2021-02-08 02:00:00 -- -- -- -- -- -- -- -- --
2021-02-08 01:00:00 -- -- -- -- -- -- -- -- --
2021-02-08 00:00:00 -- -- -- -- -- -- -- -- --
2021-02-07 23:00:00 -- -- -- -- -- -- -- -- --
2021-02-07 22:00:00 -- -- -- -- -- -- -- -- --
2021-02-07 21:00:00 -- -- -- -- -- -- -- -- --
2021-02-07 20:00:00 -- -- -- -- -- -- -- -- --
2021-02-07 19:00:00 -- -- -- -- -- -- -- -- --
2021-02-07 18:00:00 -- -- -- -- -- -- -- -- --
2021-02-07 17:00:00 -- -- -- -- -- -- -- -- --
2021-02-07 16:00:00 -- -- -- -- -- -- -- -- --
2021-02-07 15:00:00 -- -- -- -- -- -- -- -- --
2021-02-07 14:00:00 -- -- -- -- -- -- -- -- --
2021-02-07 13:00:00 -- -- -- -- -- -- -- -- --
2021-02-07 12:00:00 -- -- -- -- -- -- -- -- --
2021-02-07 11:00:00 -- -- -- -- -- -- -- -- --
2021-02-07 10:00:00 -- -- -- -- -- -- -- -- --
2021-02-07 09:00:00 -- -- -- -- -- -- -- -- --
2021-02-07 08:00:00 -- -- -- -- -- -- -- -- --
2021-02-07 07:00:00 -- -- -- -- -- -- -- -- --
2021-02-07 06:00:00 -- -- -- -- -- -- -- -- --
2021-02-07 05:00:00 -- -- -- -- -- -- -- -- --
2021-02-07 04:00:00 -- -- -- -- -- -- -- -- --
2021-02-07 03:00:00 -- -- -- -- -- -- -- -- --
2021-02-07 02:00:00 -- -- -- -- -- -- -- -- --
2021-02-07 01:00:00 -- -- -- -- -- -- -- -- --
2021-02-07 00:00:00 -- -- -- -- -- -- -- -- --
2021-02-06 23:00:00 -- -- -- -- -- -- -- -- --
2021-02-06 22:00:00 -- -- -- -- -- -- -- -- --
2021-02-06 21:00:00 -- -- -- -- -- -- -- -- --
2021-02-06 20:00:00 -- -- -- -- -- -- -- -- --
2021-02-06 19:00:00 -- -- -- -- -- -- -- -- --
2021-02-06 18:00:00 -- -- -- -- -- -- -- -- --
2021-02-06 17:00:00 -- -- -- -- -- -- -- -- --
2021-02-06 16:00:00 -- -- -- -- -- -- -- -- --
2021-02-06 15:00:00 -- -- -- -- -- -- -- -- --
2021-02-06 14:00:00 -- -- -- -- -- -- -- -- --
2021-02-06 13:00:00 -- -- -- -- -- -- -- -- --
2021-02-06 12:00:00 -- -- -- -- -- -- -- -- --
2021-02-06 11:00:00 -- -- -- -- -- -- -- -- --
2021-02-06 10:00:00 -- -- -- -- -- -- -- -- --
2021-02-06 09:00:00 -- -- -- -- -- -- -- -- --
2021-02-06 08:00:00 -- -- -- -- -- -- -- -- --
2021-02-06 07:00:00 -- -- -- -- -- -- -- -- --
2021-02-06 06:00:00 -- -- -- -- -- -- -- -- --
2021-02-06 05:00:00 -- -- -- -- -- -- -- -- --
2021-02-06 04:00:00 -- -- -- -- -- -- -- -- --
2021-02-06 03:00:00 -- -- -- -- -- -- -- -- --
2021-02-06 02:00:00 -- -- -- -- -- -- -- -- --
2021-02-06 01:00:00 -- -- -- -- -- -- -- -- --
2021-02-06 00:00:00 -- -- -- -- -- -- -- -- --
2021-02-05 23:00:00 -- -- -- -- -- -- -- -- --
2021-02-05 22:00:00 -- -- -- -- -- -- -- -- --
2021-02-05 21:00:00 -- -- -- -- -- -- -- -- --
2021-02-05 20:00:00 -- -- -- -- -- -- -- -- --
2021-02-05 19:00:00 -- -- -- -- -- -- -- -- --
2021-02-05 18:00:00 -- -- -- -- -- -- -- -- --
2021-02-05 17:00:00 -- -- -- -- -- -- -- -- --
2021-02-05 16:00:00 -- -- -- -- -- -- -- -- --
2021-02-05 15:00:00 -- -- -- -- -- -- -- -- --
2021-02-05 14:00:00 -- -- -- -- -- -- -- -- --
2021-02-05 13:00:00 -- -- -- -- -- -- -- -- --
2021-02-05 12:00:00 -- -- -- -- -- -- -- -- --
2021-02-05 11:00:00 -- -- -- -- -- -- -- -- --
2021-02-05 10:00:00 -- -- -- -- -- -- -- -- --
2021-02-05 09:00:00 -- -- -- -- -- -- -- -- --
2021-02-05 08:00:00 -- -- -- -- -- -- -- -- --
2021-02-05 07:00:00 -- -- -- -- -- -- -- -- --
2021-02-05 06:00:00 -- -- -- -- -- -- -- -- --
2021-02-05 05:00:00 -- -- -- -- -- -- -- -- --
2021-02-05 04:00:00 -- -- -- -- -- -- -- -- --
2021-02-05 03:00:00 -- -- -- -- -- -- -- -- --
2021-02-05 02:00:00 -- -- -- -- -- -- -- -- --
2021-02-05 01:00:00 -- -- -- -- -- -- -- -- --
2021-02-05 00:00:00 -- -- -- -- -- -- -- -- --
2021-02-04 23:00:00 -- -- -- -- -- -- -- -- --
2021-02-04 22:00:00 -- -- -- -- -- -- -- -- --
2021-02-04 21:00:00 -- -- -- -- -- -- -- -- --
2021-02-04 20:00:00 -- -- -- -- -- -- -- -- --
2021-02-04 19:00:00 -- -- -- -- -- -- -- -- --
2021-02-04 18:00:00 -- -- -- -- -- -- -- -- --
2021-02-04 17:00:00 -- -- -- -- -- -- -- -- --
2021-02-04 16:00:00 -- -- -- -- -- -- -- -- --
2021-02-04 15:00:00 -- -- -- -- -- -- -- -- --
2021-02-04 14:00:00 -- -- -- -- -- -- -- -- --
2021-02-04 13:00:00 -- -- -- -- -- -- -- -- --
2021-02-04 12:00:00 -- -- -- -- -- -- -- -- --
2021-02-04 11:00:00 -- -- -- -- -- -- -- -- --
2021-02-04 10:00:00 -- -- -- -- -- -- -- -- --
2021-02-04 09:00:00 -- -- -- -- -- -- -- -- --
2021-02-04 08:00:00 -- -- -- -- -- -- -- -- --
2021-02-04 07:00:00 -- -- -- -- -- -- -- -- --
2021-02-04 06:00:00 -- -- -- -- -- -- -- -- --
2021-02-04 05:00:00 -- -- -- -- -- -- -- -- --
2021-02-04 04:00:00 -- -- -- -- -- -- -- -- --
2021-02-04 03:00:00 -- -- -- -- -- -- -- -- --
2021-02-04 02:00:00 -- -- -- -- -- -- -- -- --
2021-02-04 01:00:00 -- -- -- -- -- -- -- -- --
2021-02-04 00:00:00 -- -- -- -- -- -- -- -- --
2021-02-03 23:00:00 -- -- -- -- -- -- -- -- --
2021-02-03 22:00:00 -- -- -- -- -- -- -- -- --
2021-02-03 21:00:00 -- -- -- -- -- -- -- -- --
2021-02-03 20:00:00 -- -- -- -- -- -- -- -- --
2021-02-03 19:00:00 -- -- -- -- -- -- -- -- --
2021-02-03 18:00:00 -- -- -- -- -- -- -- -- --
2021-02-03 17:00:00 -- -- -- -- -- -- -- -- --
2021-02-03 16:00:00 -- -- -- -- -- -- -- -- --
2021-02-03 15:00:00 -- -- -- -- -- -- -- -- --
2021-02-03 14:00:00 -- -- -- -- -- -- -- -- --
2021-02-03 13:00:00 -- -- -- -- -- -- -- -- --
2021-02-03 12:00:00 -- -- -- -- -- -- -- -- --
2021-02-03 11:00:00 -- -- -- -- -- -- -- -- --
2021-02-03 10:00:00 -- -- -- -- -- -- -- -- --
2021-02-03 09:00:00 -- -- -- -- -- -- -- -- --
2021-02-03 08:00:00 14.5 6 Oeste 14 Noroeste 0 -- -- 59
2021-02-03 07:00:00 12.6 5 Oeste 10 Noroeste 0 -- -- 68
2021-02-03 06:00:00 12.6 0 Calma 8 Oeste 0 -- -- 70
2021-02-03 05:00:00 13.6 4 Oeste 12 Oeste 0 -- -- 66
2021-02-03 04:00:00 13.2 4 Noroeste 9 Noroeste 0 -- -- 69
2021-02-03 03:00:00 13.3 7 Noroeste 14 Noroeste 0 -- -- 73
2021-02-03 02:00:00 13.6 8 Noroeste 17 Oeste 0 -- -- 75
2021-02-03 01:00:00 14.1 6 Noroeste 17 Oeste 0 -- -- 69
2021-02-03 00:00:00 14.7 10 Oeste 18 Oeste 0 -- -- 64
2021-02-02 23:00:00 15.4 5 Oeste 12 Oeste 0 -- -- 60
2021-02-02 22:00:00 15.6 7 Oeste 16 Oeste 0 -- -- 60
2021-02-02 21:00:00 15.8 9 Oeste 19 Oeste 0 -- -- 61
2021-02-02 20:00:00 16.2 5 Oeste 20 Oeste 0 -- -- 61
2021-02-02 19:00:00 16.7 6 Oeste 14 Oeste 0 -- -- 60
2021-02-02 18:00:00 17.5 7 Oeste 18 Oeste 0 -- -- 60
2021-02-02 17:00:00 18.1 8 Oeste 26 Sudoeste 0 -- -- 60
2021-02-02 16:00:00 18.5 9 Oeste 19 Sudoeste 0 -- -- 56
2021-02-02 15:00:00 18.6 9 Oeste 23 Oeste 0 -- -- 51
2021-02-02 14:00:00 18.9 12 Oeste 23 Sudoeste 0 -- -- 49
2021-02-02 13:00:00 19.6 4 Sudoeste 18 Oeste 0 -- -- 49
2021-02-02 12:00:00 18.1 6 Oeste 16 Noroeste 0 -- -- 53
2021-02-02 11:00:00 15.4 2 Este 10 Sudeste 0 -- -- 60
2021-02-02 10:00:00 13.5 5 Sudeste 11 Sudeste 0 -- -- 67
2021-02-02 09:00:00 13.6 3 Este 9 Oeste 0 -- -- 63
2021-02-02 08:00:00 13.9 2 Nordeste 17 Noroeste 0 -- -- 62
2021-02-02 07:00:00 14.9 12 Noroeste 24 Oeste 0 -- -- 60
2021-02-02 06:00:00 14.7 6 Oeste 12 Nordeste 0 -- -- 60
2021-02-02 05:00:00 14.1 3 Nordeste 12 Noroeste 0 -- -- 60
2021-02-02 04:00:00 15.3 6 Oeste 14 Oeste 0 -- -- 54
2021-02-02 03:00:00 15.5 6 Noroeste 17 Noroeste 0 -- -- 52
2021-02-02 02:00:00 15.8 8 Oeste 18 Noroeste 0 -- -- 50
2021-02-02 01:00:00 15.8 3 Este 14 Nordeste 0 -- -- 50
2021-02-02 00:00:00 16.3 9 Oeste 18 Noroeste 0 -- -- 50
2021-02-01 23:00:00 16.4 6 Oeste 25 Noroeste 0 -- -- 52
2021-02-01 22:00:00 17 12 Noroeste 33 Noroeste 0 -- -- 50
2021-02-01 21:00:00 17.4 15 Oeste 33 Noroeste 0 -- -- 48
2021-02-01 20:00:00 18 14 Oeste 32 Noroeste 0 -- -- 45
2021-02-01 19:00:00 18.5 12 Oeste 32 Noroeste 0 -- -- 42
2021-02-01 18:00:00 19.3 13 Oeste 37 Oeste 0 -- -- 39
2021-02-01 17:00:00 20.1 14 Oeste 36 Oeste 0 -- -- 35
2021-02-01 16:00:00 21.1 8 Oeste 26 Oeste 0 -- -- 34
2021-02-01 15:00:00 20.5 9 Sur 23 Nordeste 0 -- -- 35
2021-02-01 14:00:00 19.8 7 Sudeste 28 Nordeste 0 -- -- 39
2021-02-01 13:00:00 18.7 8 Este 28 Norte 0 -- -- 42
2021-02-01 12:00:00 17.8 7 Oeste 29 Oeste 0 -- -- 45
2021-02-01 11:00:00 16.7 8 Oeste 28 Oeste 0 -- -- 48
2021-02-01 10:00:00 15.3 12 Oeste 30 Oeste 0 -- -- 51
2021-02-01 09:00:00 15.1 11 Oeste 30 Oeste 0 -- -- 51
2021-02-01 08:00:00 14.8 6 Oeste 19 Oeste 0 -- -- 50
2021-02-01 07:00:00 14.5 4 Oeste 18 Oeste 0 -- -- 53
2021-02-01 06:00:00 15 4 Oeste 21 Oeste 0 -- -- 54
2021-02-01 05:00:00 14.8 5 Oeste 17 Noroeste 0 -- -- 57
2021-02-01 04:00:00 15 10 Oeste 24 Oeste 0 -- -- 58
2021-02-01 03:00:00 14.9 10 Oeste 23 Oeste 0 -- -- 63
2021-02-01 02:00:00 14.2 2 Sudoeste 12 Noroeste 0.2 -- -- 70
2021-02-01 01:00:00 13.6 2 Sudeste 6 Noroeste 0 -- -- 63
2021-02-01 00:00:00 14.5 5 Oeste 16 Noroeste 0 -- -- 58
2021-01-31 23:00:00 15.9 7 Oeste 35 Oeste 0 -- -- 53
2021-01-31 22:00:00 16.2 14 Oeste 37 Oeste 0 -- -- 52
2021-01-31 21:00:00 16.2 10 Oeste 30 Oeste 0 -- -- 53
2021-01-31 20:00:00 16.2 8 Oeste 36 Oeste 0 -- -- 52
2021-01-31 19:00:00 16.6 15 Noroeste 35 Oeste 0 -- -- 50
2021-01-31 18:00:00 17.1 12 Oeste 29 Noroeste 0 -- -- 48
2021-01-31 17:00:00 17.6 11 Oeste 22 Oeste 0 -- -- 42
2021-01-31 16:00:00 17.6 7 Oeste 26 Noroeste 0 -- -- 42
2021-01-31 15:00:00 17.4 6 Oeste 27 Noroeste 0 -- -- 45
2021-01-31 14:00:00 15.9 14 Oeste 41 Oeste 0 -- -- 48
2021-01-31 13:00:00 15.4 19 Oeste 45 Oeste 0 -- -- 49
2021-01-31 12:00:00 15.6 14 Oeste 33 Oeste 0 -- -- 49
2021-01-31 11:00:00 14 12 Oeste 32 Oeste 0 -- -- 52
2021-01-31 10:00:00 12.4 12 Oeste 46 Noroeste 0 -- -- 56
2021-01-31 09:00:00 11.7 15 Oeste 33 Noroeste 0 -- -- 56
2021-01-31 08:00:00 11.7 9 Oeste 35 Noroeste 0 -- -- 55
2021-01-31 07:00:00 11.7 15 Oeste 36 Oeste 0 -- -- 54
2021-01-31 06:00:00 11.9 16 Oeste 44 Noroeste 0 -- -- 54
2021-01-31 05:00:00 12.1 15 Oeste 44 Oeste 0 -- -- 54
2021-01-31 04:00:00 12.1 13 Oeste 32 Noroeste 0 -- -- 54
2021-01-31 03:00:00 12.3 13 Oeste 37 Noroeste 0 -- -- 51
2021-01-31 02:00:00 12.6 13 Oeste 31 Oeste 0 -- -- 46
2021-01-31 01:00:00 11.9 10 Oeste 21 Oeste 0 -- -- 49
2021-01-31 00:00:00 12.2 7 Oeste 26 Oeste 0 -- -- 49
2021-01-30 23:00:00 12.6 4 Oeste 13 Oeste 0 -- -- 52
2021-01-30 22:00:00 13 3 Sudeste 11 Este 0 -- -- 74
2021-01-30 21:00:00 14.9 9 Noroeste 27 Noroeste 0 -- -- 48
2021-01-30 20:00:00 15.4 6 Sudoeste 27 Norte 0 -- -- 48
2021-01-30 19:00:00 16.3 10 Noroeste 24 Noroeste 0 -- -- 44
2021-01-30 18:00:00 16.2 10 Oeste 30 Noroeste 0 -- -- 46
2021-01-30 17:00:00 18.7 13 Oeste 32 Noroeste 0 -- -- 39
2021-01-30 16:00:00 19.4 17 Oeste 37 Oeste 0 -- -- 38
2021-01-30 15:00:00 19.8 14 Oeste 46 Noroeste 0 -- -- 40
2021-01-30 14:00:00 19.4 18 Oeste 44 Noroeste 0 -- -- 43
2021-01-30 13:00:00 18.7 21 Noroeste 40 Noroeste 0 -- -- 47
2021-01-30 12:00:00 17.1 17 Noroeste 38 Noroeste 0 -- -- 55
2021-01-30 11:00:00 17.2 19 Noroeste 36 Noroeste 0 -- -- 56
2021-01-30 10:00:00 16.9 16 Noroeste 34 Noroeste 0 -- -- 57
2021-01-30 09:00:00 13.7 5 Oeste 10 Oeste 0 -- -- 73
2021-01-30 08:00:00 12.2 3 Sudeste 11 Oeste 0 -- -- 83
2021-01-30 07:00:00 12.5 3 Noroeste 13 Noroeste 0 -- -- 81
2021-01-30 06:00:00 12.4 2 Oeste 10 Noroeste 0 -- -- 83
2021-01-30 05:00:00 12.2 5 Noroeste 10 Oeste 0 -- -- 84
2021-01-30 04:00:00 12.2 2 Oeste 5 Noroeste 0 -- -- 86
2021-01-30 03:00:00 12.7 2 Noroeste 9 Sudoeste 0 -- -- 85
2021-01-30 02:00:00 13.1 2 Sudoeste 8 Oeste 0 -- -- 85
2021-01-30 01:00:00 12.8 0 Calma 4 Noroeste 0 -- -- 88
2021-01-30 00:00:00 13.2 0 Calma 6 Sudeste 0 -- -- 88
2021-01-29 23:00:00 13.5 2 Sudeste 8 Sudeste 0 -- -- 88
2021-01-29 22:00:00 13.6 3 Sudeste 6 Sudeste 0 -- -- 88
2021-01-29 21:00:00 14.2 6 Sudeste 10 Sudeste 0 -- -- 83
2021-01-29 20:00:00 14.5 3 Sudeste 12 Sudeste 0 -- -- 80
2021-01-29 19:00:00 14.9 5 Este 13 Sudeste 0 -- -- 79
2021-01-29 18:00:00 17 4 Este 19 Nordeste 0 -- -- 70
2021-01-29 17:00:00 21.8 6 Oeste 26 Oeste 0 -- -- 46
2021-01-29 16:00:00 22.9 13 Oeste 27 Noroeste 0 -- -- 43
2021-01-29 15:00:00 22.9 8 Oeste 31 Oeste 0 -- -- 44
2021-01-29 14:00:00 22.5 14 Oeste 28 Noroeste 0 -- -- 44
2021-01-29 13:00:00 21.4 8 Oeste 16 Noroeste 0 -- -- 52
2021-01-29 12:00:00 20.1 7 Oeste 15 Oeste 0 -- -- 58
2021-01-29 11:00:00 18.3 4 Oeste 10 Este 0 -- -- 62
2021-01-29 10:00:00 17.2 3 Sudeste 9 Este 0 -- -- 66
2021-01-29 09:00:00 15.7 3 Sudoeste 7 Este 0 -- -- 72
2021-01-29 08:00:00 15.2 3 Sur 13 Sudeste 0 -- -- 74
2021-01-29 07:00:00 16 4 Este 18 Oeste 0 -- -- 71
2021-01-29 06:00:00 16.2 5 Oeste 19 Noroeste 0 -- -- 71
2021-01-29 05:00:00 12.9 3 Sur 8 Sudoeste 0 -- -- 84
2021-01-29 04:00:00 12.5 2 Sudeste 10 Sudoeste 0 -- -- 86
2021-01-29 03:00:00 12.4 0 Calma 9 Noroeste 0 -- -- 85
2021-01-29 02:00:00 12.5 2 Noroeste 10 Noroeste 0 -- -- 84
2021-01-29 01:00:00 12.4 3 Oeste 9 Noroeste 0 -- -- 84
2021-01-29 00:00:00 12.4 3 Noroeste 7 Noroeste 0 -- -- 84
2021-01-28 23:00:00 12.4 2 Oeste 4 Nordeste 0 -- -- 86
2021-01-28 22:00:00 12.9 0 Calma 6 Sur 0 -- -- 86
2021-01-28 21:00:00 13.1 3 Este 6 Este 0 -- -- 86
2021-01-28 20:00:00 13.4 3 Sudeste 7 Sudeste 0 -- -- 82
2021-01-28 19:00:00 13.6 3 Este 6 Sudeste 0 -- -- 83
2021-01-28 18:00:00 14.3 3 Sur 8 Sur 0 -- -- 78
2021-01-28 17:00:00 15.1 4 Sudeste 12 Sudeste 0 -- -- 75
2021-01-28 16:00:00 16.1 5 Sudeste 12 Sudeste 0 -- -- 72
2021-01-28 15:00:00 16.6 5 Sudeste 10 Sudeste 0 -- -- 73
2021-01-28 14:00:00 16.9 5 Sudeste 13 Sudeste 0 -- -- 71
2021-01-28 13:00:00 16.9 5 Sudeste 13 Sur 0 -- -- 71
2021-01-28 12:00:00 17.1 4 Sudeste 9 Sudeste 0 -- -- 69
2021-01-28 11:00:00 16.4 3 Sur 9 Noroeste 0 -- -- 71
2021-01-28 10:00:00 14.5 6 Oeste 11 Noroeste 0 -- -- 76
2021-01-28 09:00:00 13.4 5 Noroeste 13 Noroeste 0 -- -- 79
2021-01-28 08:00:00 11.9 7 Noroeste 15 Oeste 0 -- -- 85
2021-01-28 07:00:00 10.5 3 Sudeste 8 Sudeste 0 -- -- 85
2021-01-28 06:00:00 10.4 2 Sudoeste 6 Sudeste 0 -- -- 85
2021-01-28 05:00:00 10.8 0 Calma 8 Sudeste 0 -- -- 81
2021-01-28 04:00:00 11.1 2 Sudeste 8 Noroeste 0 -- -- 77
2021-01-28 03:00:00 10.6 0 Calma 5 Sudeste 0 -- -- 77
2021-01-28 02:00:00 11.4 0 Calma 11 Noroeste 0 -- -- 73
2021-01-28 01:00:00 10.9 3 Noroeste 6 Noroeste 0 -- -- 76
2021-01-28 00:00:00 11.4 0 Calma 8 Noroeste 0 -- -- 72